Terminal Aerodrome Forecast
Issued by NWS

Home | Current Version | Previous Version | Text Only | Print | Product List | Glossary On
Versions: 1 2 3 4 5 6 7 8 9 10 11 12 13 14 15 16 17 18
000
FTUS44 KBMX 251124
TAFTOI
TAF
KTOI 251124Z 2512/2612 19005KT P6SM BKN250
     FM251300 14010KT P6SM SCT050 BKN200
     FM252000 17012G17KT P6SM VCSH OVC050
     FM252300 18010G15KT 3SM RA VCTS OVC025CB
     FM260100 17010KT 5SM SHRA BKN025 BKN050=

USA.gov is the U.S. government's official web portal to all federal, state and local government web resources and services.